createdAt,value
2023-01-13T00:01:41.296Z,103.90
2023-01-13T00:04:13.592Z,57.70
2023-01-13T00:06:41.775Z,65.40
2023-01-13T00:09:09.468Z,60.80
2023-01-13T04:03:57.824Z,53.30
2023-01-13T04:07:11.984Z,45.10
2023-01-13T04:10:01.915Z,54.10
2023-01-13T04:13:05.384Z,45.00
2023-01-13T04:15:40.456Z,48.00
2023-01-13T04:18:21.578Z,56.10
2023-01-13T04:20:59.272Z,47.70
2023-01-13T04:23:30.653Z,50.00
2023-01-13T04:26:01.522Z,53.00
2023-01-13T04:28:29.978Z,52.30
2023-01-13T04:30:57.126Z,47.30
2023-01-13T04:33:28.765Z,34.50
2023-01-13T04:36:12.578Z,51.60
2023-01-13T04:38:43.359Z,43.90
2023-01-13T04:41:13.257Z,48.10
2023-01-13T04:43:45.891Z,45.90
2023-01-13T04:46:14.873Z,48.60
2023-01-13T04:48:42.666Z,46.80
2023-01-13T04:51:09.837Z,40.00
2023-01-13T04:53:36.965Z,45.70
2023-01-13T04:56:14.813Z,49.80
2023-01-13T04:58:50.627Z,49.70
2023-01-13T05:01:20.188Z,47.70
2023-01-13T05:03:55.341Z,54.10
2023-01-13T05:06:28.888Z,54.20
2023-01-13T05:08:56.521Z,49.80
2023-01-13T05:11:45.737Z,49.00
2023-01-13T05:14:31.419Z,52.70
2023-01-13T05:17:05.537Z,44.30
2023-01-13T05:19:35.439Z,58.60
2023-01-13T05:22:27.600Z,53.00
2023-01-13T05:25:15.915Z,53.50
2023-01-13T05:27:48.913Z,59.90
2023-01-13T05:30:20.840Z,53.40
2023-01-13T05:32:50.183Z,51.40
2023-01-13T05:35:23.103Z,66.90
2023-01-13T05:37:50.766Z,55.60
2023-01-13T05:43:22.016Z,48.80
2023-01-13T05:45:51.203Z,52.00
2023-01-13T05:48:25.386Z,43.00
2023-01-13T05:50:55.569Z,50.30
2023-01-13T05:53:23.036Z,45.90
2023-01-13T05:55:51.893Z,43.10
2023-01-13T05:58:19.995Z,48.30
2023-01-13T06:00:48.344Z,49.70
2023-01-13T06:03:20.981Z,51.00
2023-01-13T06:05:51.601Z,43.00
2023-01-13T06:08:20.359Z,51.40
2023-01-13T06:10:54.822Z,59.10
2023-01-13T06:13:23.261Z,52.80
2023-01-13T06:15:56.323Z,55.50
2023-01-13T06:18:25.188Z,51.00
2023-01-13T06:20:53.517Z,51.90
2023-01-13T06:23:28.499Z,53.60
2023-01-13T06:26:06.306Z,56.80
2023-01-13T06:28:38.109Z,53.10
2023-01-13T06:31:07.591Z,59.20
2023-01-13T06:33:50.783Z,56.10
2023-01-13T06:36:27.408Z,55.70
2023-01-13T06:38:58.971Z,51.60
2023-01-13T06:41:45.259Z,52.40
2023-01-13T06:44:12.742Z,51.60
2023-01-13T06:46:39.853Z,57.80
2023-01-13T06:49:13.281Z,51.80
2023-01-13T06:51:42.932Z,69.80
2023-01-13T06:54:12.336Z,81.00
2023-01-13T06:56:39.661Z,60.60
2023-01-13T06:59:08.584Z,67.90
2023-01-13T07:01:36.220Z,57.60
2023-01-13T07:04:03.847Z,55.80
2023-01-13T07:06:33.697Z,48.60
2023-01-13T07:09:01.013Z,59.70
2023-01-13T07:11:32.497Z,58.80
2023-01-13T07:14:22.058Z,51.30
2023-01-13T07:16:49.246Z,63.50
2023-01-13T07:19:24.363Z,56.70
2023-01-13T07:21:57.282Z,68.00
2023-01-13T07:24:25.831Z,53.90
2023-01-13T07:26:56.055Z,41.90
2023-01-13T07:29:32.644Z,48.80
2023-01-13T07:31:59.867Z,47.30
2023-01-13T07:34:27.401Z,56.40
2023-01-13T07:36:55.440Z,50.60
2023-01-13T07:39:23.388Z,59.80
2023-01-13T07:42:13.396Z,54.50
2023-01-13T07:44:43.119Z,57.40
2023-01-13T07:47:11.692Z,66.20
2023-01-13T07:49:45.354Z,62.40
2023-01-13T07:52:23.770Z,63.80
2023-01-13T07:54:55.035Z,57.30
2023-01-13T07:57:22.575Z,55.70
2023-01-13T07:59:51.404Z,53.20
2023-01-13T08:02:22.068Z,60.50
2023-01-13T08:04:50.009Z,52.00
2023-01-13T08:07:18.315Z,54.00
2023-01-13T08:09:46.488Z,60.60
2023-01-13T08:12:33.827Z,59.80
2023-01-13T08:15:11.582Z,61.20
2023-01-13T08:17:42.607Z,60.60
2023-01-13T08:20:13.036Z,61.80
2023-01-13T14:16:59.590Z,42.90
2023-01-13T14:19:37.797Z,69.30
2023-01-13T14:22:08.538Z,39.50
2023-01-13T14:24:38.082Z,32.10
2023-01-13T14:30:36.916Z,52.60
2023-01-13T14:46:02.693Z,32.80
2023-01-13T14:48:38.596Z,34.50
2023-01-13T14:51:12.848Z,37.10
2023-01-13T14:53:53.468Z,37.10
2023-01-13T14:56:53.517Z,37.30
2023-01-13T15:00:13.346Z,41.70
2023-01-13T15:02:42.664Z,47.70
2023-01-13T15:05:18.566Z,49.20
2023-01-13T15:07:52.796Z,43.20
2023-01-13T15:10:24.437Z,50.20
2023-01-13T15:12:54.786Z,42.60
2023-01-13T15:15:36.886Z,37.30
2023-01-13T15:18:15.091Z,53.70
2023-01-13T15:20:56.303Z,41.10
2023-01-13T15:23:24.178Z,41.80
2023-01-13T15:25:54.834Z,57.90
2023-01-13T15:28:27.160Z,46.80
2023-01-13T15:30:57.701Z,38.40
2023-01-13T15:33:25.519Z,36.70
2023-01-13T15:35:57.986Z,31.40
2023-01-13T15:38:26.274Z,45.80
2023-01-13T15:41:00.529Z,40.90
2023-01-13T15:43:48.296Z,48.30
2023-01-13T15:46:35.034Z,59.10
2023-01-13T15:49:13.025Z,44.00
2023-01-13T15:51:42.322Z,41.50
2023-01-13T16:00:27.494Z,46.60
2023-01-13T16:02:55.134Z,47.20
2023-01-13T16:05:24.512Z,56.40
2023-01-13T16:07:54.063Z,48.10
2023-01-13T16:10:33.033Z,38.50
2023-01-13T16:13:06.726Z,49.60
2023-01-13T16:19:50.333Z,55.20
2023-01-13T16:22:47.123Z,39.00
2023-01-13T16:26:47.729Z,46.60
2023-01-13T16:29:15.048Z,47.50
2023-01-13T16:36:09.701Z,42.70
2023-01-13T16:38:36.626Z,47.30
2023-01-13T16:41:07.788Z,40.50
2023-01-13T16:43:42.055Z,47.60
2023-01-13T16:46:27.913Z,48.50
2023-01-13T16:52:25.366Z,51.50
2023-01-13T16:57:40.930Z,43.30
2023-01-13T17:00:12.873Z,44.80
2023-01-13T17:02:42.566Z,55.20
2023-01-13T17:05:13.087Z,57.60
2023-01-13T17:07:45.101Z,64.70
2023-01-13T17:10:21.139Z,54.00
2023-01-13T17:12:48.645Z,51.00
2023-01-13T17:15:18.752Z,58.80
2023-01-13T17:17:51.515Z,52.40
2023-01-13T17:20:20.418Z,60.20
2023-01-13T17:22:57.835Z,56.20
2023-01-13T17:25:27.421Z,51.40
2023-01-13T17:27:55.729Z,61.50
2023-01-13T17:30:28.427Z,59.60
2023-01-13T17:32:55.846Z,54.80
2023-01-13T17:35:24.397Z,61.90
2023-01-13T17:37:54.411Z,63.60
2023-01-13T22:19:07.017Z,48.20
2023-01-13T22:21:35.301Z,64.40
2023-01-13T22:24:03.363Z,63.20
2023-01-13T22:26:30.646Z,55.50
2023-01-13T22:28:57.864Z,66.70
2023-01-13T22:31:25.992Z,57.20
2023-01-13T22:33:58.641Z,61.20
2023-01-13T22:36:27.008Z,58.90
2023-01-13T22:38:56.327Z,65.60
2023-01-13T22:41:26.768Z,48.00
2023-01-13T22:43:55.810Z,64.10
2023-01-13T22:46:28.189Z,60.40
2023-01-13T22:48:55.645Z,58.80
2023-01-13T22:51:22.956Z,56.00
2023-01-13T22:53:50.751Z,63.00
2023-01-13T22:56:22.667Z,55.30
2023-01-13T22:58:57.367Z,51.30
2023-01-13T23:01:26.592Z,53.20
2023-01-13T23:03:57.162Z,60.50
2023-01-13T23:06:25.150Z,63.50
2023-01-13T23:08:52.434Z,61.20
2023-01-13T23:11:20.206Z,66.80
2023-01-13T23:13:47.492Z,61.30
2023-01-13T23:16:17.621Z,70.50
2023-01-13T23:18:47.968Z,69.90
2023-01-13T23:23:47.679Z,72.50
2023-01-13T23:26:15.042Z,72.90
2023-01-13T23:28:42.166Z,68.50
2023-01-13T23:31:12.195Z,65.20
2023-01-13T23:33:40.895Z,71.60
2023-01-13T23:36:08.946Z,76.10
2023-01-13T23:38:36.610Z,67.10
2023-01-13T23:41:07.736Z,74.60
2023-01-13T23:43:38.043Z,66.30
2023-01-13T23:46:07.513Z,71.00
2023-01-13T23:48:38.021Z,77.80
2023-01-13T23:51:10.009Z,66.20
2023-01-13T23:53:40.431Z,79.00
2023-01-13T23:56:10.804Z,64.50
2023-01-13T23:58:38.000Z,84.20
